Time;durP1;ratioP1;P1;durP2;ratioP2;P2;SDS_P1;SDS_P2;PMS_P1;PMS_P2;Temp;Humidity;BMP_temperature;BMP_pressure;BME280_temperature;BME280_humidity;BME280_pressure;Samples;Min_cycle;Max_cycle;Signal;HPM_P1;HPM_P2
2022/10/04 00:00:41;;;;;;;;;;;;;;;7.68;96.24;97626.31;30001;982;1876;-69
2022/10/04 00:01:12;;;;;;;;;;;;;;;7.67;96.26;97628.19;30001;982;1881;-71
2022/10/04 00:01:59;;;;;;;;;;;;;;;7.68;96.08;97631.72;30001;983;1862;-68
2022/10/04 00:02:32;;;;;;;;;;;;;;;7.68;96.20;97631.72;30001;983;1871;-68
2022/10/04 00:03:09;;;;;;;;;;;;;;;7.66;95.73;97633.84;30001;983;1835;-67
2022/10/04 00:03:42;;;;;;;;;;;;;;;7.66;96.04;97628.44;30001;983;1880;-68
2022/10/04 00:04:25;;;;;;;;;;;;;;;7.65;95.81;97624.13;30001;983;1876;-70
2022/10/04 00:05:00;;;;;;;;;;;;;;;7.65;95.85;97632.22;30001;983;1867;-69
2022/10/04 00:05:31;;;;;;;;;;;;;;;7.64;96.11;97626.00;30001;983;1867;-68
2022/10/04 00:06:03;;;;;;;;;;;;;;;7.64;95.83;97625.19;30001;971;1891;-70
2022/10/04 00:06:37;;;;;;;;;;;;;;;7.63;96.08;97627.06;30001;982;1863;-67
2022/10/04 00:07:25;;;;;;;;;;;;;;;7.63;95.83;97628.97;30001;982;1872;-67
2022/10/04 00:07:58;;;;;;;;;;;;;;;7.63;95.92;97628.97;30001;982;1872;-66
2022/10/04 00:08:41;;;;;;;;;;;;;;;7.65;96.17;97632.22;30001;982;1881;-69
2022/10/04 00:09:18;;;;;;;;;;;;;;;7.64;95.96;97626.00;30001;983;1875;-67
2022/10/04 00:09:57;;;;;;;;;;;;;;;7.64;95.94;97619.78;30001;983;1880;-67
2022/10/04 00:10:30;;;;;;;;;;;;;;;7.70;95.55;97624.16;30001;983;1876;-68
2022/10/04 00:11:15;;;;;;;;;;;;;;;7.70;95.32;97629.56;30001;983;1880;-68
2022/10/04 00:11:47;;;;;;;;;;;;;;;7.71;95.16;97623.09;30001;983;1863;-67
2022/10/04 00:12:26;;;;;;;;;;;;;;;7.69;95.16;97622.53;30001;983;1871;-68
2022/10/04 00:13:03;;;;;;;;;;;;;;;7.70;95.04;97619.59;30001;983;1876;-53
2022/10/04 00:13:36;;;;;;;;;;;;;;;7.71;95.16;97615.00;30001;982;1880;-54
2022/10/04 00:14:15;;;;;;;;;;;;;;;7.70;95.02;97622.28;30001;982;1876;-66
2022/10/04 00:14:46;;;;;;;;;;;;;;;7.67;94.75;97624.69;30001;982;1880;-68
2022/10/04 00:15:49;;;;;;;;;;;;;;;7.65;95.02;97616.00;30001;982;1876;-54
2022/10/04 00:16:39;;;;;;;;;;;;;;;7.62;94.92;97621.97;30001;982;1863;-54
2022/10/04 00:17:13;;;;;;;;;;;;;;;7.60;95.42;97624.09;30001;983;1867;-54
2022/10/04 00:17:44;;;;;;;;;;;;;;;7.59;95.15;97622.47;30001;983;1880;-69
2022/10/04 00:18:35;;;;;;;;;;;;;;;7.57;95.20;97624.59;30001;983;1876;-68
2022/10/04 00:19:32;;;;;;;;;;;;;;;7.56;95.50;97620.28;30001;983;1876;-67
2022/10/04 00:20:23;;;;;;;;;;;;;;;7.55;95.78;97621.34;30001;983;1858;-67
2022/10/04 00:20:58;;;;;;;;;;;;;;;7.53;95.54;97620.78;30001;982;1867;-54
2022/10/04 00:21:47;;;;;;;;;;;;;;;7.50;95.50;97624.00;30001;982;1876;-53
2022/10/04 00:22:29;;;;;;;;;;;;;;;7.50;95.69;97622.09;30001;982;1859;-67
2022/10/04 00:23:32;;;;;;;;;;;;;;;7.48;95.56;97626.12;30001;982;1867;-68
2022/10/04 00:24:10;;;;;;;;;;;;;;;7.45;95.80;97619.34;30001;983;1875;-68
2022/10/04 00:25:00;;;;;;;;;;;;;;;7.43;95.96;97624.19;30001;964;1894;-53
2022/10/04 00:25:35;;;;;;;;;;;;;;;7.39;96.35;97620.38;30001;983;1880;-68
2022/10/04 00:26:31;;;;;;;;;;;;;;;7.38;96.21;97622.25;30001;983;1876;-67
2022/10/04 00:27:31;;;;;;;;;;;;;;;7.34;96.43;97614.91;30001;983;1875;-68
2022/10/04 00:28:16;;;;;;;;;;;;;;;7.33;96.91;97618.69;30001;983;1858;-67
2022/10/04 00:28:48;;;;;;;;;;;;;;;7.36;96.41;97613.59;30001;982;1872;-69
2022/10/04 00:29:44;;;;;;;;;;;;;;;7.37;96.64;97615.22;30001;982;1876;-67
2022/10/04 00:30:22;;;;;;;;;;;;;;;7.39;96.41;97612.25;30001;986;1876;-68
2022/10/04 00:31:09;;;;;;;;;;;;;;;7.40;96.54;97614.72;30001;983;1875;-67
2022/10/04 00:31:59;;;;;;;;;;;;;;;7.41;96.67;97618.22;30001;983;1880;-67
2022/10/04 00:32:49;;;;;;;;;;;;;;;7.43;96.55;97612.56;30001;983;1867;-69
2022/10/04 00:33:37;;;;;;;;;;;;;;;7.45;96.00;97615.84;30001;983;1862;-54
2022/10/04 00:34:28;;;;;;;;;;;;;;;7.46;96.24;97612.06;30001;983;1867;-66
2022/10/04 00:34:59;;;;;;;;;;;;;;;7.46;95.97;97617.47;30001;983;1876;-53
2022/10/04 00:35:51;;;;;;;;;;;;;;;7.47;96.01;97616.41;30001;983;1876;-67
2022/10/04 00:36:37;;;;;;;;;;;;;;;7.46;95.87;97617.47;30001;982;1876;-55
2022/10/04 00:37:14;;;;;;;;;;;;;;;7.45;96.18;97616.66;30001;982;1863;-68
2022/10/04 00:38:19;;;;;;;;;;;;;;;7.45;95.93;97615.84;30001;982;1769;-66
2022/10/04 00:39:21;;;;;;;;;;;;;;;7.45;96.16;97615.84;30001;983;1858;-66
2022/10/04 00:40:08;;;;;;;;;;;;;;;7.44;96.21;97619.59;30001;983;1867;-67
2022/10/04 00:40:53;;;;;;;;;;;;;;;7.46;96.10;97614.75;30001;983;1876;-67
2022/10/04 00:41:24;;;;;;;;;;;;;;;7.45;95.86;97615.84;30001;983;1880;-69
2022/10/04 00:42:12;;;;;;;;;;;;;;;7.47;95.67;97616.41;30001;983;1876;-70
2022/10/04 00:42:57;;;;;;;;;;;;;;;7.46;95.68;97612.06;30001;983;1867;-67
2022/10/04 00:43:32;;;;;;;;;;;;;;;7.45;95.90;97622.06;30001;982;1867;-53
2022/10/04 00:44:07;;;;;;;;;;;;;;;7.49;96.01;97623.19;30001;982;1867;-54
2022/10/04 00:45:01;;;;;;;;;;;;;;;7.49;95.66;97608.84;30001;982;1867;-53
2022/10/04 00:45:44;;;;;;;;;;;;;;;7.50;95.87;97607.78;30001;982;1876;-54
2022/10/04 00:46:19;;;;;;;;;;;;;;;7.49;95.78;97608.84;30001;983;1875;-54
2022/10/04 00:46:51;;;;;;;;;;;;;;;7.48;95.66;97604.53;30001;983;1880;-54
2022/10/04 00:47:30;;;;;;;;;;;;;;;7.46;95.99;97604.78;30001;983;1867;-67
2022/10/04 00:48:10;;;;;;;;;;;;;;;7.44;96.06;97603.41;30001;983;1875;-67
2022/10/04 00:48:46;;;;;;;;;;;;;;;7.41;96.01;97599.31;30001;983;1867;-67
2022/10/04 00:49:20;;;;;;;;;;;;;;;7.39;95.73;97598.75;30001;983;1875;-65
2022/10/04 00:49:55;;;;;;;;;;;;;;;7.37;95.80;97601.72;30001;983;1880;-67
2022/10/04 00:50:38;;;;;;;;;;;;;;;7.35;96.06;97603.84;30001;983;1885;-54
2022/10/04 00:51:29;;;;;;;;;;;;;;;7.34;96.45;97599.53;30001;982;1880;-67
2022/10/04 00:52:02;;;;;;;;;;;;;;;7.33;96.51;97594.38;30001;982;1880;-54
2022/10/04 00:52:36;;;;;;;;;;;;;;;7.31;96.17;97591.94;30001;982;1880;-67
2022/10/04 00:53:12;;;;;;;;;;;;;;;7.34;96.17;97596.00;30001;982;1885;-54
2022/10/04 00:53:47;;;;;;;;;;;;;;;7.33;96.33;97594.38;30001;983;1867;-67
2022/10/04 00:54:26;;;;;;;;;;;;;;;7.34;96.16;97598.72;30001;983;1875;-55
2022/10/04 00:54:59;;;;;;;;;;;;;;;7.33;95.87;97592.50;30001;983;1880;-68
2022/10/04 00:55:45;;;;;;;;;;;;;;;7.33;95.91;97595.19;30001;983;1884;-69
2022/10/04 00:56:25;;;;;;;;;;;;;;;7.34;95.90;97599.53;30001;983;1880;-68
2022/10/04 00:57:02;;;;;;;;;;;;;;;7.34;95.67;97598.72;30001;983;1884;-53
2022/10/04 00:57:45;;;;;;;;;;;;;;;7.32;95.36;97593.56;30001;983;1880;-67
2022/10/04 00:58:19;;;;;;;;;;;;;;;7.31;95.15;97594.63;30001;982;1885;-68
2022/10/04 00:59:13;;;;;;;;;;;;;;;7.28;95.43;97589.75;30001;982;1867;-68
2022/10/04 00:59:51;;;;;;;;;;;;;;;7.25;95.53;97590.28;30001;982;1872;-68
2022/10/04 01:00:23;;;;;;;;;;;;;;;7.25;95.52;97590.28;30001;982;1881;-67
2022/10/04 01:00:56;;;;;;;;;;;;;;;7.25;95.74;97592.97;30001;982;1885;-54
2022/10/04 01:01:28;;;;;;;;;;;;;;;7.23;96.04;97591.59;30001;983;1867;-54
2022/10/04 01:02:02;;;;;;;;;;;;;;;7.23;96.14;97584.31;30001;983;1875;-68
2022/10/04 01:02:48;;;;;;;;;;;;;;;7.23;95.85;97586.19;30001;983;1880;-67
2022/10/04 01:03:23;;;;;;;;;;;;;;;7.22;95.95;97596.19;30001;983;1884;-67
2022/10/04 01:03:57;;;;;;;;;;;;;;;7.19;96.03;97591.28;30001;983;1880;-66
2022/10/04 01:04:37;;;;;;;;;;;;;;;7.21;96.12;97593.72;30001;983;1884;-69
2022/10/04 01:05:14;;;;;;;;;;;;;;;7.20;95.94;97587.53;30001;983;1880;-67
2022/10/04 01:05:50;;;;;;;;;;;;;;;7.22;96.28;97590.78;30001;982;1872;-68
2022/10/04 01:06:21;;;;;;;;;;;;;;;7.21;96.16;97589.16;30001;982;1872;-54
2022/10/04 01:06:53;;;;;;;;;;;;;;;7.20;96.14;97592.91;30001;982;1809;-67
2022/10/04 01:07:31;;;;;;;;;;;;;;;7.21;96.08;97594.56;30001;969;1901;-55
2022/10/04 01:08:10;;;;;;;;;;;;;;;7.21;96.17;97594.56;30001;982;1872;-68
2022/10/04 01:08:48;;;;;;;;;;;;;;;7.21;96.21;97589.16;30001;983;1871;-68
2022/10/04 01:09:20;;;;;;;;;;;;;;;7.21;96.44;97599.94;30001;983;1884;-66
2022/10/04 01:09:54;;;;;;;;;;;;;;;7.22;96.19;97596.19;30001;983;1880;-68
2022/10/04 01:10:45;;;;;;;;;;;;;;;7.20;96.48;97601.00;30001;964;1903;-67
2022/10/04 01:11:18;;;;;;;;;;;;;;;7.19;96.25;97596.69;30001;983;1876;-54
2022/10/04 01:11:55;;;;;;;;;;;;;;;7.19;96.63;97593.16;30001;983;1884;-53
2022/10/04 01:12:40;;;;;;;;;;;;;;;7.17;96.71;97598.81;30001;983;1880;-69
2022/10/04 01:13:14;;;;;;;;;;;;;;;7.16;96.53;97591.78;30001;982;1872;-67
2022/10/04 01:13:55;;;;;;;;;;;;;;;7.15;96.81;97590.16;30001;982;1872;-68
2022/10/04 01:14:31;;;;;;;;;;;;;;;7.14;96.78;97599.31;30001;982;1885;-54
2022/10/04 01:15:09;;;;;;;;;;;;;;;7.13;96.87;97603.09;30001;982;1880;-53
2022/10/04 01:15:49;;;;;;;;;;;;;;;7.11;97.23;97599.84;30001;982;1885;-67
2022/10/04 01:16:25;;;;;;;;;;;;;;;7.08;97.05;97594.94;30001;983;1880;-68
2022/10/04 01:16:57;;;;;;;;;;;;;;;7.09;97.12;97591.16;30001;983;1884;-69
2022/10/04 01:17:28;;;;;;;;;;;;;;;7.08;97.25;97594.94;30001;983;1880;-54
2022/10/04 01:18:09;;;;;;;;;;;;;;;7.08;97.58;97592.25;30001;983;1884;-54
2022/10/04 01:18:40;;;;;;;;;;;;;;;7.07;97.89;97596.00;30001;983;1867;-53
2022/10/04 01:19:43;;;;;;;;;;;;;;;7.06;97.75;97592.50;30001;983;1876;-53
2022/10/04 01:20:27;;;;;;;;;;;;;;;7.09;97.90;97596.56;30001;983;1863;-67
2022/10/04 01:21:35;;;;;;;;;;;;;;;7.11;97.66;97593.63;30001;982;1876;-68
2022/10/04 01:22:15;;;;;;;;;;;;;;;7.13;97.49;97592.28;30001;982;1877;-68
2022/10/04 01:22:49;;;;;;;;;;;;;;;7.16;97.17;97601.78;30001;982;1866;-67
2022/10/04 01:23:33;;;;;;;;;;;;;;;7.17;97.56;97593.44;30001;982;1872;-67
2022/10/04 01:24:22;;;;;;;;;;;;;;;7.17;97.23;97592.59;30001;983;1884;-68
2022/10/04 01:24:53;;;;;;;;;;;;;;;7.18;97.40;97595.06;30001;983;1875;-68
2022/10/04 01:25:43;;;;;;;;;;;;;;;7.19;97.32;97587.78;30001;983;1884;-67
2022/10/04 01:26:43;;;;;;;;;;;;;;;7.20;96.95;97597.50;30001;983;1880;-53
2022/10/04 01:27:30;;;;;;;;;;;;;;;7.19;96.92;97590.47;30001;983;1794;-66
2022/10/04 01:28:01;;;;;;;;;;;;;;;7.17;96.90;97592.59;30001;982;1872;-68
2022/10/04 01:28:33;;;;;;;;;;;;;;;7.17;96.62;97593.44;30001;982;1885;-66
2022/10/04 01:29:07;;;;;;;;;;;;;;;7.18;96.61;97589.66;30001;982;1867;-67
2022/10/04 01:29:39;;;;;;;;;;;;;;;7.18;96.51;97581.56;30001;982;1876;-67
2022/10/04 01:30:12;;;;;;;;;;;;;;;7.20;96.99;97587.53;30001;982;1881;-65
2022/10/04 01:30:43;;;;;;;;;;;;;;;7.19;96.48;97591.28;30001;983;1884;-65
2022/10/04 01:31:15;;;;;;;;;;;;;;;7.20;96.66;97587.53;30001;983;1880;-67
2022/10/04 01:31:48;;;;;;;;;;;;;;;7.20;96.35;97581.31;30001;983;1884;-66
2022/10/04 01:32:19;;;;;;;;;;;;;;;7.20;96.51;97586.69;30001;983;1880;-67
2022/10/04 01:32:51;;;;;;;;;;;;;;;7.18;96.41;97583.44;30001;983;1884;-67
2022/10/04 01:33:23;;;;;;;;;;;;;;;7.17;96.24;97582.63;30001;983;1880;-67
2022/10/04 01:33:55;;;;;;;;;;;;;;;7.17;96.57;97588.03;30001;983;1871;-67
2022/10/04 01:34:27;;;;;;;;;;;;;;;7.16;96.49;97578.31;30001;983;1769;-68
2022/10/04 01:34:58;;;;;;;;;;;;;;;7.16;96.41;97574.78;30001;983;1885;-67
2022/10/04 01:35:30;;;;;;;;;;;;;;;7.13;96.36;97578.81;30001;982;1880;-67
2022/10/04 01:36:02;;;;;;;;;;;;;;;7.13;96.33;97576.09;30001;982;1885;-68
2022/10/04 01:36:33;;;;;;;;;;;;;;;7.13;96.09;97576.09;30001;982;1867;-68
2022/10/04 01:37:04;;;;;;;;;;;;;;;7.11;96.40;97572.84;30001;982;1876;-67
2022/10/04 01:37:38;;;;;;;;;;;;;;;7.12;96.45;97579.06;30001;982;1881;-67
2022/10/04 01:38:10;;;;;;;;;;;;;;;7.11;96.35;97578.25;30001;983;1884;-68
2022/10/04 01:38:41;;;;;;;;;;;;;;;7.09;96.61;97574.97;30001;983;1880;-67
2022/10/04 01:39:15;;;;;;;;;;;;;;;7.08;96.37;97573.34;30001;983;1884;-68
2022/10/04 01:39:46;;;;;;;;;;;;;;;7.05;96.77;97580.06;30001;973;1899;-68
2022/10/04 01:40:17;;;;;;;;;;;;;;;7.05;96.98;97573.84;30001;983;1871;-69
2022/10/04 01:40:53;;;;;;;;;;;;;;;7.04;96.76;97570.34;30001;983;1871;-68
2022/10/04 01:41:57;;;;;;;;;;;;;;;7.02;96.67;97568.97;30001;983;1884;-67
2022/10/04 01:42:34;;;;;;;;;;;;;;;7.01;97.11;97572.72;30001;983;1876;-68
2022/10/04 01:43:08;;;;;;;;;;;;;;;7.00;96.96;97566.50;30001;982;1884;-69
2022/10/04 01:43:41;;;;;;;;;;;;;;;6.99;97.32;97564.06;30001;982;1880;-66
2022/10/04 01:44:19;;;;;;;;;;;;;;;6.99;97.46;97564.06;30001;982;1885;-67
2022/10/04 01:44:54;;;;;;;;;;;;;;;6.99;97.57;97569.47;30001;982;1880;-68
2022/10/04 01:45:34;;;;;;;;;;;;;;;6.98;97.46;97567.84;30001;983;1871;-68
2022/10/04 01:46:10;;;;;;;;;;;;;;;6.99;97.67;97564.06;30001;983;1871;-69
2022/10/04 01:46:41;;;;;;;;;;;;;;;7.01;97.42;97567.31;30001;983;1884;-66
2022/10/04 01:47:17;;;;;;;;;;;;;;;7.02;97.18;97558.97;30001;983;1880;-67
2022/10/04 01:47:53;;;;;;;;;;;;;;;7.04;96.92;97556.84;30001;983;1884;-70
2022/10/04 01:48:30;;;;;;;;;;;;;;;7.06;97.16;97556.59;30001;983;1880;-66
2022/10/04 01:49:13;;;;;;;;;;;;;;;7.07;96.95;97550.12;30001;983;1884;-68
2022/10/04 01:49:45;;;;;;;;;;;;;;;7.07;96.90;97555.53;30001;983;1880;-53
2022/10/04 01:50:24;;;;;;;;;;;;;;;7.10;96.78;97559.59;30001;983;1871;-67
2022/10/04 01:51:04;;;;;;;;;;;;;;;7.08;96.87;97551.75;30001;982;1871;-68
2022/10/04 01:51:45;;;;;;;;;;;;;;;7.10;96.69;97548.81;30001;982;1885;-68
2022/10/04 01:52:21;;;;;;;;;;;;;;;7.11;96.53;97551.25;30001;982;1867;-66
2022/10/04 01:52:55;;;;;;;;;;;;;;;7.12;96.59;97550.19;30001;982;1876;-67
2022/10/04 01:53:28;;;;;;;;;;;;;;;7.12;96.47;97547.50;30001;983;1866;-67
2022/10/04 01:54:05;;;;;;;;;;;;;;;7.12;96.06;97552.06;30001;983;1862;-66
2022/10/04 01:54:40;;;;;;;;;;;;;;;7.10;95.85;97546.09;30001;983;1880;-67
2022/10/04 01:55:14;;;;;;;;;;;;;;;7.12;95.98;97544.78;30001;983;1871;-66
2022/10/04 01:55:50;;;;;;;;;;;;;;;7.13;95.91;97549.13;30001;983;1871;-67
2022/10/04 01:56:26;;;;;;;;;;;;;;;7.13;95.62;97546.41;30001;983;1884;-69
2022/10/04 01:57:11;;;;;;;;;;;;;;;7.10;95.35;97541.53;30001;971;1900;-66
2022/10/04 01:57:51;;;;;;;;;;;;;;;7.10;95.55;97548.81;30001;983;1884;-65
2022/10/04 01:58:25;;;;;;;;;;;;;;;7.09;95.75;97541.78;30001;982;1867;-68
2022/10/04 01:58:59;;;;;;;;;;;;;;;7.05;95.72;97544.97;30001;982;1876;-54
2022/10/04 01:59:32;;;;;;;;;;;;;;;7.05;95.59;97541.47;30001;982;1880;-68
2022/10/04 02:00:05;;;;;;;;;;;;;;;7.02;95.79;97545.50;30001;982;1884;-67
2022/10/04 02:00:40;;;;;;;;;;;;;;;7.02;95.77;97536.56;30001;983;1866;-67
2022/10/04 02:01:15;;;;;;;;;;;;;;;7.00;96.05;97544.13;30001;983;1875;-67
2022/10/04 02:01:59;;;;;;;;;;;;;;;6.99;96.22;97547.88;30001;983;1880;-67
2022/10/04 02:02:40;;;;;;;;;;;;;;;6.97;96.16;97550.00;30001;983;1884;-67
2022/10/04 02:03:17;;;;;;;;;;;;;;;6.96;96.20;97551.91;30001;983;1867;-68
2022/10/04 02:03:53;;;;;;;;;;;;;;;6.93;96.52;97549.69;30001;983;1875;-67
2022/10/04 02:04:30;;;;;;;;;;;;;;;6.93;96.65;97538.91;30001;983;1880;-69
2022/10/04 02:05:02;;;;;;;;;;;;;;;6.93;96.72;97548.91;30001;983;1884;-53
2022/10/04 02:05:39;;;;;;;;;;;;;;;6.92;96.62;97536.50;30001;986;1880;-67
2022/10/04 02:06:11;;;;;;;;;;;;;;;6.92;96.78;97541.91;30001;982;1871;-67
2022/10/04 02:06:43;;;;;;;;;;;;;;;6.93;96.67;97549.69;30001;982;1872;-67
2022/10/04 02:07:15;;;;;;;;;;;;;;;6.93;96.85;97543.53;30001;986;1885;-67
2022/10/04 02:07:47;;;;;;;;;;;;;;;6.92;96.86;97548.09;30001;982;1880;-66
2022/10/04 02:08:23;;;;;;;;;;;;;;;6.92;96.97;97541.91;30001;983;1884;-68
2022/10/04 02:08:57;;;;;;;;;;;;;;;6.92;96.83;97539.19;30001;983;1879;-69
2022/10/04 02:09:32;;;;;;;;;;;;;;;6.92;96.70;97544.59;30001;983;1884;-67
2022/10/04 02:10:06;;;;;;;;;;;;;;;6.87;96.54;97539.94;30001;983;1880;-70
2022/10/04 02:10:38;;;;;;;;;;;;;;;6.87;96.94;97541.84;30001;983;1871;-68
2022/10/04 02:11:15;;;;;;;;;;;;;;;6.85;96.76;97542.09;30001;964;1890;-69
2022/10/04 02:11:51;;;;;;;;;;;;;;;6.84;96.82;97540.44;30001;983;1884;-68
2022/10/04 02:12:30;;;;;;;;;;;;;;;6.84;96.74;97535.06;30001;982;1793;-67
2022/10/04 02:13:06;;;;;;;;;;;;;;;6.84;96.81;97547.72;30001;982;1884;-67
2022/10/04 02:13:39;;;;;;;;;;;;;;;6.85;96.71;97541.28;30001;982;1880;-68
2022/10/04 02:14:14;;;;;;;;;;;;;;;6.87;96.94;97544.53;30001;982;1885;-67
2022/10/04 02:14:52;;;;;;;;;;;;;;;6.87;96.60;97539.13;30001;982;1880;-55
2022/10/04 02:15:26;;;;;;;;;;;;;;;6.87;96.80;97539.13;30001;982;1885;-66
2022/10/04 02:15:58;;;;;;;;;;;;;;;6.87;96.77;97531.03;30001;983;1866;-67
2022/10/04 02:16:29;;;;;;;;;;;;;;;6.88;96.67;97541.59;30001;983;1875;-67
2022/10/04 02:17:04;;;;;;;;;;;;;;;6.86;96.28;97534.81;30001;983;1880;-67
2022/10/04 02:17:38;;;;;;;;;;;;;;;6.88;96.38;97536.19;30001;983;1884;-68
2022/10/04 02:18:13;;;;;;;;;;;;;;;6.90;96.33;97538.63;30001;983;1880;-67
2022/10/04 02:18:45;;;;;;;;;;;;;;;6.91;96.35;97551.06;30001;983;1884;-70
2022/10/04 02:19:16;;;;;;;;;;;;;;;6.87;95.71;97542.66;30001;983;1880;-67
2022/10/04 02:19:53;;;;;;;;;;;;;;;6.86;96.03;97542.91;30001;983;1871;-55
2022/10/04 02:20:26;;;;;;;;;;;;;;;6.83;95.65;97543.41;30001;982;1785;-67
2022/10/04 02:20:58;;;;;;;;;;;;;;;6.81;96.07;97537.44;30001;982;1884;-68
2022/10/04 02:21:29;;;;;;;;;;;;;;;6.78;96.19;97546.03;30001;968;1902;-68
2022/10/04 02:22:04;;;;;;;;;;;;;;;6.77;96.39;97541.72;30001;972;1903;-67
2022/10/04 02:22:35;;;;;;;;;;;;;;;6.75;96.24;97546.53;30001;969;1904;-68
2022/10/04 02:23:07;;;;;;;;;;;;;;;6.73;96.19;97550.31;30001;982;1885;-68
2022/10/04 02:23:40;;;;;;;;;;;;;;;6.72;96.39;97553.25;30001;983;1879;-68
2022/10/04 02:24:11;;;;;;;;;;;;;;;6.69;96.49;97549.16;30001;983;1884;-68
2022/10/04 02:24:44;;;;;;;;;;;;;;;6.65;96.60;97548.03;30001;983;1880;-67
2022/10/04 02:25:17;;;;;;;;;;;;;;;6.62;96.56;97545.84;30001;983;1884;-67
2022/10/04 02:25:53;;;;;;;;;;;;;;;6.62;97.05;97548.53;30001;983;1867;-67
2022/10/04 02:26:26;;;;;;;;;;;;;;;6.60;96.95;97545.28;30001;983;1862;-53
2022/10/04 02:26:56;;;;;;;;;;;;;;;6.60;97.15;97539.06;30001;983;1880;-67
2022/10/04 02:27:29;;;;;;;;;;;;;;;6.60;97.56;97545.28;30001;982;1884;-54
2022/10/04 02:28:01;;;;;;;;;;;;;;;6.59;97.50;97537.44;30001;982;1880;-66
2022/10/04 02:28:33;;;;;;;;;;;;;;;6.60;97.92;97542.59;30001;982;1885;-67
2022/10/04 02:29:04;;;;;;;;;;;;;;;6.60;97.86;97545.28;30001;982;1880;-67
2022/10/04 02:29:35;;;;;;;;;;;;;;;6.60;98.05;97545.28;30001;982;1885;-68
2022/10/04 02:30:07;;;;;;;;;;;;;;;6.60;97.67;97537.19;30001;982;1880;-67
2022/10/04 02:30:41;;;;;;;;;;;;;;;6.62;97.85;97540.44;30001;982;1885;-66
2022/10/04 02:32:58;;;;;;;;;;;;;;;6.61;97.00;97528.03;30001;983;1871;-66
2022/10/04 02:33:29;;;;;;;;;;;;;;;6.63;97.29;97527.78;30001;983;1884;-67
2022/10/04 02:34:01;;;;;;;;;;;;;;;6.64;97.04;97530.22;30001;983;1880;-67
2022/10/04 02:34:32;;;;;;;;;;;;;;;6.66;96.70;97528.09;30001;983;1884;-67
2022/10/04 02:35:03;;;;;;;;;;;;;;;6.68;96.84;97528.66;30001;982;1880;-54
2022/10/04 02:35:45;;;;;;;;;;;;;;;6.70;96.88;97529.22;30001;982;1884;-68
2022/10/04 02:36:17;;;;;;;;;;;;;;;6.70;96.56;97523.84;30001;982;1867;-68
2022/10/04 02:36:50;;;;;;;;;;;;;;;6.71;96.40;97527.34;30001;982;1863;-66
2022/10/04 02:37:25;;;;;;;;;;;;;;;6.71;96.18;97530.84;30001;982;1788;-67
2022/10/04 02:38:00;;;;;;;;;;;;;;;6.70;95.96;97529.22;30001;983;1884;-66
2022/10/04 02:38:34;;;;;;;;;;;;;;;6.71;95.98;97525.47;30001;983;1880;-67
2022/10/04 02:39:25;;;;;;;;;;;;;;;6.71;96.12;97530.03;30001;983;1884;-54
2022/10/04 02:40:04;;;;;;;;;;;;;;;6.72;96.08;97529.78;30001;983;1880;-67
2022/10/04 02:40:39;;;;;;;;;;;;;;;6.71;95.74;97525.47;30001;983;1871;-67
2022/10/04 02:41:30;;;;;;;;;;;;;;;6.72;95.82;97526.28;30001;983;1871;-68
2022/10/04 02:42:08;;;;;;;;;;;;;;;6.72;96.06;97532.50;30001;983;1867;-68
2022/10/04 02:42:44;;;;;;;;;;;;;;;6.73;95.73;97528.72;30001;982;1871;-67
2022/10/04 02:43:21;;;;;;;;;;;;;;;6.75;95.79;97531.16;30001;982;1885;-67
2022/10/04 02:43:57;;;;;;;;;;;;;;;6.76;95.50;97526.59;30001;982;1880;-52
2022/10/04 02:44:36;;;;;;;;;;;;;;;6.72;95.67;97532.50;30001;982;1885;-66
2022/10/04 02:45:23;;;;;;;;;;;;;;;6.70;95.38;97529.22;30001;983;1788;-68
2022/10/04 02:45:59;;;;;;;;;;;;;;;6.68;95.54;97523.28;30001;983;1884;-69
2022/10/04 02:46:35;;;;;;;;;;;;;;;6.68;96.21;97531.37;30001;983;1866;-68
2022/10/04 02:47:11;;;;;;;;;;;;;;;6.66;95.88;97528.09;30001;983;1875;-69
2022/10/04 02:47:48;;;;;;;;;;;;;;;6.65;96.46;97529.16;30001;983;1880;-67
2022/10/04 02:48:48;;;;;;;;;;;;;;;6.65;96.02;97531.87;30001;971;1892;-67
2022/10/04 02:49:31;;;;;;;;;;;;;;;6.60;95.81;97526.41;30001;983;1867;-67
2022/10/04 02:50:09;;;;;;;;;;;;;;;6.63;96.40;97534.00;30001;982;1885;-66
2022/10/04 02:50:45;;;;;;;;;;;;;;;6.63;95.95;97528.59;30001;982;1880;-55
2022/10/04 02:51:48;;;;;;;;;;;;;;;6.63;96.06;97523.22;30001;982;1885;-69
2022/10/04 02:52:39;;;;;;;;;;;;;;;6.62;95.79;97526.97;30001;982;1876;-66
2022/10/04 02:53:31;;;;;;;;;;;;;;;6.62;95.79;97526.97;30001;983;1880;-66
2022/10/04 02:54:15;;;;;;;;;;;;;;;6.60;96.02;97529.09;30001;983;1862;-69
2022/10/04 02:55:01;;;;;;;;;;;;;;;6.57;95.67;97526.94;30001;983;1875;-52
2022/10/04 02:55:32;;;;;;;;;;;;;;;6.53;95.96;97527.69;30001;983;1880;-66
2022/10/04 02:56:04;;;;;;;;;;;;;;;6.51;96.48;97525.25;30001;983;1884;-55
2022/10/04 02:56:36;;;;;;;;;;;;;;;6.50;96.43;97526.31;30001;983;1880;-68
2022/10/04 02:57:18;;;;;;;;;;;;;;;6.52;96.64;97518.78;30001;983;1885;-67
2022/10/04 02:57:51;;;;;;;;;;;;;;;6.54;96.61;97524.75;30001;982;1880;-52
2022/10/04 02:58:23;;;;;;;;;;;;;;;6.54;96.50;97522.03;30001;982;1885;-66
2022/10/04 02:58:59;;;;;;;;;;;;;;;6.54;96.21;97513.97;30001;982;1880;-69
2022/10/04 02:59:32;;;;;;;;;;;;;;;6.54;96.29;97524.75;30001;982;1872;-68
2022/10/04 03:00:20;;;;;;;;;;;;;;;6.53;96.27;97519.59;30001;982;1872;-68
2022/10/04 03:00:55;;;;;;;;;;;;;;;6.52;96.91;97518.78;30001;963;1904;-69
2022/10/04 03:01:35;;;;;;;;;;;;;;;6.51;96.80;97519.03;30001;983;1880;-71
2022/10/04 03:02:20;;;;;;;;;;;;;;;6.51;96.97;97522.53;30001;983;1884;-66
2022/10/04 03:03:09;;;;;;;;;;;;;;;6.50;96.80;97514.72;30001;983;1880;-67
2022/10/04 03:03:44;;;;;;;;;;;;;;;6.48;96.97;97514.97;30001;983;1876;-69
2022/10/04 03:04:15;;;;;;;;;;;;;;;6.46;96.97;97511.69;30001;983;1880;-66
2022/10/04 03:04:48;;;;;;;;;;;;;;;6.48;97.01;97516.84;30001;983;1871;-53
2022/10/04 03:05:20;;;;;;;;;;;;;;;6.48;97.07;97514.97;30001;982;1872;-66
2022/10/04 03:06:06;;;;;;;;;;;;;;;6.49;97.06;97516.59;30001;982;1884;-69
2022/10/04 03:06:38;;;;;;;;;;;;;;;6.53;96.92;97516.91;30001;982;1867;-66
2022/10/04 03:07:09;;;;;;;;;;;;;;;6.54;96.94;97518.53;30001;982;1876;-66
2022/10/04 03:07:40;;;;;;;;;;;;;;;6.51;96.95;97514.47;30001;983;1880;-66
2022/10/04 03:08:11;;;;;;;;;;;;;;;6.52;96.71;97516.09;30001;983;1884;-55
2022/10/04 03:09:02;;;;;;;;;;;;;;;6.55;97.04;97517.47;30001;983;1880;-68
2022/10/04 03:09:35;;;;;;;;;;;;;;;6.55;96.96;97515.59;30001;983;1880;-53
2022/10/04 03:10:11;;;;;;;;;;;;;;;6.58;96.68;97511.56;30001;983;1880;-66
2022/10/04 03:10:42;;;;;;;;;;;;;;;6.62;96.79;97512.66;30001;983;1884;-65
2022/10/04 03:11:14;;;;;;;;;;;;;;;6.60;96.28;97507.53;30001;983;1880;-67
2022/10/04 03:11:48;;;;;;;;;;;;;;;6.58;96.15;97512.38;30001;983;1871;-70
2022/10/04 03:12:21;;;;;;;;;;;;;;;6.57;96.25;97499.97;30001;982;1872;-67
2022/10/04 03:12:52;;;;;;;;;;;;;;;6.56;96.21;97505.62;30001;982;1885;-67
2022/10/04 03:13:23;;;;;;;;;;;;;;;6.55;96.18;97510.19;30001;982;1880;-68
2022/10/04 03:13:55;;;;;;;;;;;;;;;6.55;96.52;97515.59;30001;982;1885;-66
2022/10/04 03:14:31;;;;;;;;;;;;;;;6.52;96.48;97508.00;30001;982;1867;-67
2022/10/04 03:15:03;;;;;;;;;;;;;;;6.50;96.56;97515.53;30001;982;1876;-68
2022/10/04 03:15:33;;;;;;;;;;;;;;;6.46;96.36;97506.31;30001;983;1880;-67
2022/10/04 03:16:05;;;;;;;;;;;;;;;6.44;96.89;97508.44;30001;983;1884;-67
2022/10/04 03:16:37;;;;;;;;;;;;;;;6.45;96.90;97510.06;30001;983;1880;-66
2022/10/04 03:17:08;;;;;;;;;;;;;;;6.46;97.02;97516.28;30001;983;1884;-68
2022/10/04 03:17:41;;;;;;;;;;;;;;;6.45;97.00;97510.06;30001;983;1880;-68
2022/10/04 03:18:13;;;;;;;;;;;;;;;6.45;97.17;97510.06;30001;983;1884;-67
2022/10/04 03:18:46;;;;;;;;;;;;;;;6.46;96.91;97510.88;30001;983;1880;-68
2022/10/04 03:19:18;;;;;;;;;;;;;;;6.45;97.08;97509.25;30001;983;1884;-66
2022/10/04 03:19:49;;;;;;;;;;;;;;;6.46;97.01;97509.00;30001;982;1867;-67
2022/10/04 03:20:20;;;;;;;;;;;;;;;6.48;97.22;97508.75;30001;982;1876;-54
2022/10/04 03:20:52;;;;;;;;;;;;;;;6.49;96.83;97511.19;30001;982;1880;-54
2022/10/04 03:21:23;;;;;;;;;;;;;;;6.47;97.16;97507.94;30001;982;1885;-69
2022/10/04 03:21:57;;;;;;;;;;;;;;;6.47;96.84;97510.63;30001;983;1880;-68
2022/10/04 03:22:28;;;;;;;;;;;;;;;6.47;96.84;97507.94;30001;983;1870;-54
2022/10/04 03:22:59;;;;;;;;;;;;;;;6.48;96.86;97514.13;30001;983;1871;-67
2022/10/04 03:23:32;;;;;;;;;;;;;;;6.45;97.03;97507.38;30001;983;1884;-54
2022/10/04 03:24:05;;;;;;;;;;;;;;;6.43;96.94;97509.50;30001;983;1783;-54
2022/10/04 03:24:38;;;;;;;;;;;;;;;6.45;96.77;97510.06;30001;983;1884;-68
2022/10/04 03:25:16;;;;;;;;;;;;;;;6.43;96.77;97501.41;30001;983;1880;-67